首页
METAR-TAF:

METAR-TAF

机场 :

广州白云国际机场

广州, 中华人民共和国

纬度: 23-10N, 经度: 113-20E, 海拔: 8米

当前天气观测

该预报发布于32分钟前的21:00 UTC
风速8节,风向北转东北,在北转西北东北之间变化
温度 11°C
湿度 66%
气压 1027 hPa
能见度10公里或以上
多云层高于5000英尺

METAR: ZGGG 132100Z 02004MPS 340V040 9999 BKN050 11/05 Q1027 NOSIG

时间: 05:32 (21:32 UTC)

预报

该预报发布于6小时和22分钟前的15:10 UTC
预报有效从13日的 18点(UTC)到 14日的 18点(UTC)
风速10节,风向
能見度: 8000
散云层高于4000英尺

TAF: ZGGG 131510Z 1318/1418 01005MPS 8000 SCT040 TX15/1407Z TN10/1322Z

超过4000个机场的气象观测和天气预报(METAR&TAF报告)。

可查询的气象台以黄色和红色小点在地图上表示。

将鼠标移到小点上方,可查看气象台名称。

然后点击查看天气观测和预报。

如需切换地图:点击带黑十字的绿色按钮放大地图;点击带横线的绿色按钮缩小地图;或者点击绿色箭头查看邻近地区的地图。


METAR-TAF: